createdAt,value
2023-05-08T15:59:14.205Z,29.02
2023-05-08T16:00:13.974Z,29.09
2023-05-08T16:01:14.029Z,29.15
2023-05-08T16:02:13.980Z,29.15
2023-05-08T16:03:14.011Z,29.24
2023-05-08T16:04:13.848Z,29.12
2023-05-08T16:05:14.057Z,29.37
2023-05-08T16:06:13.727Z,29.55
2023-05-08T16:07:13.734Z,29.50
2023-05-08T16:08:13.822Z,29.25
2023-05-08T16:09:13.612Z,28.96
2023-05-08T16:10:13.615Z,28.77
2023-05-08T16:11:13.616Z,28.20
2023-05-08T16:12:13.497Z,27.97
2023-05-08T16:13:13.561Z,27.83
2023-05-08T16:14:13.494Z,27.67
2023-05-08T16:15:13.681Z,27.60
2023-05-08T16:16:13.410Z,27.58
2023-05-08T16:17:13.384Z,27.61
2023-05-08T16:18:13.262Z,27.67
2023-05-08T16:19:13.276Z,27.81
2023-05-08T16:20:13.267Z,27.64
2023-05-08T16:21:13.268Z,27.75
2023-05-08T16:22:13.156Z,27.95
2023-05-08T16:23:13.990Z,28.28
2023-05-08T16:24:13.165Z,28.40
2023-05-08T16:25:13.440Z,28.41
2023-05-08T16:26:13.041Z,28.77
2023-05-08T16:27:13.035Z,28.89
2023-05-08T16:28:12.916Z,29.31
2023-05-08T16:29:12.915Z,29.65
2023-05-08T16:30:12.925Z,29.79
2023-05-08T16:31:13.053Z,29.76
2023-05-08T16:32:12.800Z,29.79
2023-05-08T16:33:12.800Z,29.71
2023-05-08T16:34:12.804Z,29.76
2023-05-08T16:35:12.824Z,29.74
2023-05-08T16:36:12.684Z,29.30
2023-05-08T16:37:12.690Z,29.09
2023-05-08T16:38:12.562Z,28.77
2023-05-08T16:39:12.567Z,28.41
2023-05-08T16:40:12.572Z,27.93
2023-05-08T16:41:12.574Z,27.61
2023-05-08T16:42:12.454Z,27.47
2023-05-08T16:43:12.453Z,27.23
2023-05-08T16:44:12.464Z,27.04
2023-05-08T16:45:12.455Z,26.78
2023-05-08T19:44:24.773Z,18.71
2023-05-08T19:45:24.516Z,18.60
2023-05-08T19:46:24.571Z,18.60
2023-05-08T19:47:24.430Z,18.60
2023-05-08T19:48:24.576Z,18.53
2023-05-08T19:49:24.398Z,18.60
2023-05-08T19:50:24.281Z,18.60
2023-05-08T19:51:24.288Z,18.60
2023-05-08T19:52:24.285Z,18.60
2023-05-08T19:53:24.222Z,18.55
2023-05-08T19:54:24.162Z,18.57
2023-05-08T19:55:24.046Z,18.52
2023-05-08T19:56:24.049Z,18.51
2023-05-08T19:57:24.058Z,18.55
2023-05-08T19:58:23.930Z,18.43
2023-05-08T19:59:23.930Z,18.49
2023-05-08T20:00:24.049Z,18.45
2023-05-08T20:01:23.866Z,18.55
2023-05-08T20:02:23.850Z,18.51
2023-05-08T20:03:23.918Z,18.41
2023-05-08T20:04:23.696Z,18.37
2023-05-08T20:05:23.717Z,18.46
2023-05-08T20:06:23.586Z,18.43
2023-05-08T20:07:23.574Z,18.39
2023-05-08T20:08:23.582Z,18.36
2023-05-08T20:09:23.460Z,18.36
2023-05-08T20:10:23.480Z,18.34
2023-05-08T20:11:23.471Z,18.31
2023-05-08T20:12:23.429Z,18.30
2023-05-08T20:13:23.392Z,18.39
2023-05-08T20:14:23.550Z,18.36
2023-05-08T20:15:23.233Z,18.34
2023-05-08T20:16:23.397Z,18.28
2023-05-08T20:17:23.285Z,18.27
2023-05-08T20:18:23.115Z,18.33
2023-05-08T20:19:23.146Z,18.24
2023-05-08T20:20:23.089Z,18.30
2023-05-08T20:21:22.992Z,18.27
2023-05-08T20:22:22.993Z,18.26
2023-05-08T20:23:22.877Z,18.23
2023-05-08T20:24:22.884Z,18.26
2023-05-08T20:25:22.881Z,18.27
2023-05-08T20:26:22.755Z,18.31
2023-05-08T20:27:22.755Z,18.30
2023-05-08T20:28:22.758Z,18.19
2023-05-08T20:29:22.638Z,18.15
2023-05-08T20:30:23.804Z,18.19
2023-05-08T20:31:22.686Z,18.12
2023-05-08T20:32:22.725Z,18.21
2023-05-08T20:33:22.526Z,18.19
2023-05-08T20:34:22.531Z,18.13
2023-05-08T20:35:22.412Z,18.06
2023-05-08T20:36:22.406Z,18.06
2023-05-08T20:37:22.382Z,18.12
2023-05-08T20:38:22.297Z,18.11
2023-05-08T20:39:22.288Z,18.23
2023-05-08T20:40:22.174Z,18.09
2023-05-08T20:41:22.175Z,18.13
2023-05-08T20:42:22.190Z,18.13
2023-05-08T20:43:22.054Z,18.15
2023-05-08T20:44:22.052Z,18.09
2023-05-08T20:45:22.057Z,18.18
2023-05-08T20:46:22.010Z,18.06
2023-05-08T20:47:21.932Z,18.09
2023-05-08T20:48:22.064Z,18.08
2023-05-08T20:49:21.821Z,18.05
2023-05-08T20:50:21.825Z,18.02
2023-05-08T20:51:21.838Z,18.02
2023-05-08T20:53:21.707Z,18.02
2023-05-08T20:54:21.706Z,18.09
2023-05-08T20:55:21.593Z,18.03
2023-05-08T20:56:21.586Z,18.06
2023-05-08T20:57:21.467Z,18.06
2023-05-08T20:58:21.470Z,18.00
2023-05-08T20:59:21.473Z,18.11
2023-05-08T21:00:21.370Z,18.08
2023-05-08T21:01:21.426Z,18.08
2023-05-08T21:02:21.357Z,18.05
2023-05-08T21:03:21.238Z,18.00
2023-05-08T21:04:21.387Z,18.02
2023-05-08T21:05:21.240Z,18.03
2023-05-08T21:06:21.119Z,18.06
2023-05-08T21:07:21.135Z,18.03
2023-05-08T21:08:21.120Z,18.03
2023-05-08T21:09:21.003Z,18.05
2023-05-08T21:10:21.013Z,18.03
2023-05-08T21:11:21.003Z,18.02
2023-05-08T21:12:20.908Z,17.95
2023-05-08T21:13:21.010Z,18.03
2023-05-08T21:14:20.852Z,17.94
2023-05-08T21:15:20.776Z,17.94
2023-05-08T21:16:20.797Z,18.00
2023-05-08T21:17:20.701Z,17.95
2023-05-08T21:18:20.650Z,17.93
2023-05-08T21:19:20.660Z,17.91
2023-05-08T21:20:20.648Z,17.97
2023-05-08T21:21:20.534Z,17.93
2023-05-08T21:22:20.534Z,18.00
2023-05-08T21:23:20.427Z,17.90
2023-05-08T21:24:20.418Z,17.90
2023-05-08T21:25:20.420Z,17.90
2023-05-08T21:26:20.314Z,17.93
2023-05-08T21:27:20.302Z,17.90
2023-05-08T21:28:20.314Z,17.90
2023-05-08T21:29:20.244Z,17.91
2023-05-08T21:30:20.183Z,17.90
2023-05-08T21:31:20.445Z,17.88
2023-05-08T21:32:20.074Z,17.90
2023-05-08T21:33:20.076Z,17.87
2023-05-08T21:34:19.950Z,17.88
2023-05-08T21:35:19.958Z,17.93
2023-05-08T21:36:20.073Z,17.87
2023-05-08T21:37:19.838Z,17.90
2023-05-08T21:38:19.833Z,17.87
2023-05-08T21:40:03.280Z,17.84
2023-05-08T21:41:03.160Z,17.86
2023-05-08T21:42:03.179Z,17.84
2023-05-08T21:43:03.156Z,17.86
